sensor_id;sensor_type;location;lat;lon;timestamp;temperature;humidity
74420;DHT22;62855;50.718;-2.460;2022-10-31T00:00:01;57.20;81.00
74420;DHT22;62855;50.718;-2.460;2022-10-31T00:03:00;57.20;81.00
74420;DHT22;62855;50.718;-2.460;2022-10-31T00:06:01;57.02;81.00
74420;DHT22;62855;50.718;-2.460;2022-10-31T00:09:02;57.20;81.00
74420;DHT22;62855;50.718;-2.460;2022-10-31T00:12:00;57.20;81.00
74420;DHT22;62855;50.718;-2.460;2022-10-31T00:15:01;57.20;82.00
74420;DHT22;62855;50.718;-2.460;2022-10-31T00:18:02;57.20;82.00
74420;DHT22;62855;50.718;-2.460;2022-10-31T00:21:02;57.20;82.00
74420;DHT22;62855;50.718;-2.460;2022-10-31T00:24:02;57.20;82.00
74420;DHT22;62855;50.718;-2.460;2022-10-31T00:27:01;57.20;82.00
74420;DHT22;62855;50.718;-2.460;2022-10-31T00:30:01;57.20;82.00
74420;DHT22;62855;50.718;-2.460;2022-10-31T00:33:03;57.20;82.00
74420;DHT22;62855;50.718;-2.460;2022-10-31T00:36:03;57.38;82.00
74420;DHT22;62855;50.718;-2.460;2022-10-31T00:39:01;57.38;82.00
74420;DHT22;62855;50.718;-2.460;2022-10-31T00:42:01;57.38;82.00
74420;DHT22;62855;50.718;-2.460;2022-10-31T00:45:01;57.38;82.00
74420;DHT22;62855;50.718;-2.460;2022-10-31T00:48:00;57.38;82.00
74420;DHT22;62855;50.718;-2.460;2022-10-31T00:51:01;57.38;82.00
74420;DHT22;62855;50.718;-2.460;2022-10-31T00:54:01;57.38;82.00
74420;DHT22;62855;50.718;-2.460;2022-10-31T00:57:00;57.38;82.00
74420;DHT22;62855;50.718;-2.460;2022-10-31T01:00:00;57.38;82.00
74420;DHT22;62855;50.718;-2.460;2022-10-31T01:03:02;57.38;82.00
74420;DHT22;62855;50.718;-2.460;2022-10-31T01:06:03;57.38;82.00
74420;DHT22;62855;50.718;-2.460;2022-10-31T01:09:01;57.38;82.00
74420;DHT22;62855;50.718;-2.460;2022-10-31T01:12:01;57.38;82.00
74420;DHT22;62855;50.718;-2.460;2022-10-31T01:15:01;57.38;82.00
74420;DHT22;62855;50.718;-2.460;2022-10-31T01:18:01;57.38;82.00
74420;DHT22;62855;50.718;-2.460;2022-10-31T01:21:03;57.38;82.00
74420;DHT22;62855;50.718;-2.460;2022-10-31T01:24:00;57.38;82.00
74420;DHT22;62855;50.718;-2.460;2022-10-31T01:27:01;57.38;82.00
74420;DHT22;62855;50.718;-2.460;2022-10-31T01:30:00;57.38;82.00
74420;DHT22;62855;50.718;-2.460;2022-10-31T01:33:01;57.38;82.00
74420;DHT22;62855;50.718;-2.460;2022-10-31T01:36:01;57.38;82.00
74420;DHT22;62855;50.718;-2.460;2022-10-31T01:39:03;57.38;82.00
74420;DHT22;62855;50.718;-2.460;2022-10-31T01:42:01;57.38;82.00
74420;DHT22;62855;50.718;-2.460;2022-10-31T01:45:02;57.38;82.00
74420;DHT22;62855;50.718;-2.460;2022-10-31T01:48:01;57.38;82.00
74420;DHT22;62855;50.718;-2.460;2022-10-31T01:51:01;57.38;82.00
74420;DHT22;62855;50.718;-2.460;2022-10-31T01:54:04;57.38;82.00
74420;DHT22;62855;50.718;-2.460;2022-10-31T01:57:02;57.38;82.00
74420;DHT22;62855;50.718;-2.460;2022-10-31T02:00:07;57.38;82.00
74420;DHT22;62855;50.718;-2.460;2022-10-31T02:03:01;57.38;82.00
74420;DHT22;62855;50.718;-2.460;2022-10-31T02:06:03;57.38;82.00
74420;DHT22;62855;50.718;-2.460;2022-10-31T02:09:03;57.38;82.00
74420;DHT22;62855;50.718;-2.460;2022-10-31T02:12:02;57.38;82.00
74420;DHT22;62855;50.718;-2.460;2022-10-31T02:15:01;57.38;82.00
74420;DHT22;62855;50.718;-2.460;2022-10-31T02:18:02;57.38;82.00
74420;DHT22;62855;50.718;-2.460;2022-10-31T02:21:06;57.38;82.00
74420;DHT22;62855;50.718;-2.460;2022-10-31T02:27:09;57.56;82.00
74420;DHT22;62855;50.718;-2.460;2022-10-31T02:30:07;57.56;82.00
74420;DHT22;62855;50.718;-2.460;2022-10-31T02:33:09;57.38;82.00
74420;DHT22;62855;50.718;-2.460;2022-10-31T02:36:05;57.38;82.00
74420;DHT22;62855;50.718;-2.460;2022-10-31T02:39:08;57.38;82.00
74420;DHT22;62855;50.718;-2.460;2022-10-31T02:42:03;57.38;81.00
74420;DHT22;62855;50.718;-2.460;2022-10-31T02:45:07;57.38;81.00
74420;DHT22;62855;50.718;-2.460;2022-10-31T02:48:08;57.20;81.00
74420;DHT22;62855;50.718;-2.460;2022-10-31T02:51:03;57.20;81.00
74420;DHT22;62855;50.718;-2.460;2022-10-31T02:54:01;57.02;81.00
74420;DHT22;62855;50.718;-2.460;2022-10-31T02:57:04;56.84;81.00
74420;DHT22;62855;50.718;-2.460;2022-10-31T03:00:03;56.84;81.00
74420;DHT22;62855;50.718;-2.460;2022-10-31T03:03:07;56.84;81.00
74420;DHT22;62855;50.718;-2.460;2022-10-31T03:06:08;56.84;82.00
74420;DHT22;62855;50.718;-2.460;2022-10-31T03:09:05;56.84;82.00
74420;DHT22;62855;50.718;-2.460;2022-10-31T03:12:07;56.84;82.00
74420;DHT22;62855;50.718;-2.460;2022-10-31T03:15:09;56.84;82.00
74420;DHT22;62855;50.718;-2.460;2022-10-31T03:18:04;57.02;82.00
74420;DHT22;62855;50.718;-2.460;2022-10-31T03:21:05;57.02;82.00
74420;DHT22;62855;50.718;-2.460;2022-10-31T03:24:02;57.02;82.00
74420;DHT22;62855;50.718;-2.460;2022-10-31T03:27:02;57.02;82.00
74420;DHT22;62855;50.718;-2.460;2022-10-31T03:30:03;57.20;82.00
74420;DHT22;62855;50.718;-2.460;2022-10-31T03:33:02;57.20;82.00
74420;DHT22;62855;50.718;-2.460;2022-10-31T03:36:04;57.02;82.00
74420;DHT22;62855;50.718;-2.460;2022-10-31T03:39:02;57.02;82.00
74420;DHT22;62855;50.718;-2.460;2022-10-31T03:42:04;57.02;81.00
74420;DHT22;62855;50.718;-2.460;2022-10-31T03:45:06;57.02;81.00
74420;DHT22;62855;50.718;-2.460;2022-10-31T03:48:02;57.02;81.00
74420;DHT22;62855;50.718;-2.460;2022-10-31T03:51:06;57.02;81.00
74420;DHT22;62855;50.718;-2.460;2022-10-31T03:54:06;57.02;81.00
74420;DHT22;62855;50.718;-2.460;2022-10-31T03:57:06;57.02;81.00
74420;DHT22;62855;50.718;-2.460;2022-10-31T04:00:05;57.02;81.00
74420;DHT22;62855;50.718;-2.460;2022-10-31T04:03:05;57.02;82.00
74420;DHT22;62855;50.718;-2.460;2022-10-31T04:06:04;57.20;82.00
74420;DHT22;62855;50.718;-2.460;2022-10-31T04:09:04;57.20;82.00
74420;DHT22;62855;50.718;-2.460;2022-10-31T04:12:03;57.20;82.00
74420;DHT22;62855;50.718;-2.460;2022-10-31T04:15:02;57.20;82.00
74420;DHT22;62855;50.718;-2.460;2022-10-31T04:18:03;57.20;82.00
74420;DHT22;62855;50.718;-2.460;2022-10-31T04:21:03;57.20;82.00
74420;DHT22;62855;50.718;-2.460;2022-10-31T04:24:01;57.20;82.00
74420;DHT22;62855;50.718;-2.460;2022-10-31T04:27:00;57.20;82.00
74420;DHT22;62855;50.718;-2.460;2022-10-31T04:30:01;57.20;82.00
74420;DHT22;62855;50.718;-2.460;2022-10-31T04:33:00;57.20;81.00
74420;DHT22;62855;50.718;-2.460;2022-10-31T04:36:01;57.02;81.00
74420;DHT22;62855;50.718;-2.460;2022-10-31T04:39:02;57.02;81.00
74420;DHT22;62855;50.718;-2.460;2022-10-31T04:42:01;57.02;81.00
74420;DHT22;62855;50.718;-2.460;2022-10-31T04:45:01;57.02;81.00
74420;DHT22;62855;50.718;-2.460;2022-10-31T04:48:01;57.02;81.00
74420;DHT22;62855;50.718;-2.460;2022-10-31T04:51:01;56.84;81.00
74420;DHT22;62855;50.718;-2.460;2022-10-31T04:54:01;56.84;81.00
74420;DHT22;62855;50.718;-2.460;2022-10-31T04:57:00;56.84;81.00
74420;DHT22;62855;50.718;-2.460;2022-10-31T05:00:02;56.84;81.00
74420;DHT22;62855;50.718;-2.460;2022-10-31T05:03:01;56.84;81.00
74420;DHT22;62855;50.718;-2.460;2022-10-31T05:06:01;56.84;81.00
74420;DHT22;62855;50.718;-2.460;2022-10-31T05:09:01;56.84;81.00
74420;DHT22;62855;50.718;-2.460;2022-10-31T05:12:01;57.02;81.00
74420;DHT22;62855;50.718;-2.460;2022-10-31T05:15:00;57.02;81.00
74420;DHT22;62855;50.718;-2.460;2022-10-31T05:18:02;57.02;81.00
74420;DHT22;62855;50.718;-2.460;2022-10-31T05:21:01;57.02;81.00
74420;DHT22;62855;50.718;-2.460;2022-10-31T05:24:02;57.02;81.00
74420;DHT22;62855;50.718;-2.460;2022-10-31T05:27:01;57.02;81.00
74420;DHT22;62855;50.718;-2.460;2022-10-31T05:30:01;57.02;81.00
74420;DHT22;62855;50.718;-2.460;2022-10-31T05:33:02;56.84;80.00
74420;DHT22;62855;50.718;-2.460;2022-10-31T05:36:02;56.84;80.00
74420;DHT22;62855;50.718;-2.460;2022-10-31T05:39:01;56.84;80.00
74420;DHT22;62855;50.718;-2.460;2022-10-31T05:42:01;56.84;80.00
74420;DHT22;62855;50.718;-2.460;2022-10-31T05:45:01;56.84;80.00
74420;DHT22;62855;50.718;-2.460;2022-10-31T05:48:01;56.84;80.00
74420;DHT22;62855;50.718;-2.460;2022-10-31T05:51:01;56.84;80.00
74420;DHT22;62855;50.718;-2.460;2022-10-31T05:54:01;56.66;80.00
74420;DHT22;62855;50.718;-2.460;2022-10-31T05:57:00;56.66;80.00
74420;DHT22;62855;50.718;-2.460;2022-10-31T06:00:02;56.66;80.00
74420;DHT22;62855;50.718;-2.460;2022-10-31T06:03:04;56.66;80.00
74420;DHT22;62855;50.718;-2.460;2022-10-31T06:06:01;56.66;80.00
74420;DHT22;62855;50.718;-2.460;2022-10-31T06:09:01;56.66;81.00
74420;DHT22;62855;50.718;-2.460;2022-10-31T06:12:01;56.66;81.00
74420;DHT22;62855;50.718;-2.460;2022-10-31T06:15:01;56.66;81.00
74420;DHT22;62855;50.718;-2.460;2022-10-31T06:18:02;56.66;81.00
74420;DHT22;62855;50.718;-2.460;2022-10-31T06:21:01;56.66;81.00
74420;DHT22;62855;50.718;-2.460;2022-10-31T06:24:01;56.66;81.00
74420;DHT22;62855;50.718;-2.460;2022-10-31T06:27:00;56.66;81.00
74420;DHT22;62855;50.718;-2.460;2022-10-31T06:30:01;56.48;81.00
74420;DHT22;62855;50.718;-2.460;2022-10-31T06:33:02;56.48;80.00
74420;DHT22;62855;50.718;-2.460;2022-10-31T06:36:02;56.30;80.00
74420;DHT22;62855;50.718;-2.460;2022-10-31T06:39:01;56.30;80.00
74420;DHT22;62855;50.718;-2.460;2022-10-31T06:42:02;56.30;80.00
74420;DHT22;62855;50.718;-2.460;2022-10-31T06:45:01;56.12;80.00
74420;DHT22;62855;50.718;-2.460;2022-10-31T06:48:00;56.12;80.00
74420;DHT22;62855;50.718;-2.460;2022-10-31T06:51:02;56.12;81.00
74420;DHT22;62855;50.718;-2.460;2022-10-31T06:54:01;56.12;81.00
74420;DHT22;62855;50.718;-2.460;2022-10-31T06:57:01;56.12;81.00
74420;DHT22;62855;50.718;-2.460;2022-10-31T07:00:01;55.94;81.00
74420;DHT22;62855;50.718;-2.460;2022-10-31T07:03:03;55.94;81.00
74420;DHT22;62855;50.718;-2.460;2022-10-31T07:06:00;55.94;81.00
74420;DHT22;62855;50.718;-2.460;2022-10-31T07:09:01;55.94;81.00
74420;DHT22;62855;50.718;-2.460;2022-10-31T07:12:01;55.76;81.00
74420;DHT22;62855;50.718;-2.460;2022-10-31T07:15:01;55.76;81.00
74420;DHT22;62855;50.718;-2.460;2022-10-31T07:18:02;55.76;82.00
74420;DHT22;62855;50.718;-2.460;2022-10-31T07:21:01;55.94;82.00
74420;DHT22;62855;50.718;-2.460;2022-10-31T07:24:01;55.94;82.00
74420;DHT22;62855;50.718;-2.460;2022-10-31T07:27:01;56.12;82.00
74420;DHT22;62855;50.718;-2.460;2022-10-31T07:30:01;56.12;82.00
74420;DHT22;62855;50.718;-2.460;2022-10-31T07:33:01;56.12;82.00
74420;DHT22;62855;50.718;-2.460;2022-10-31T07:36:01;56.30;82.00
74420;DHT22;62855;50.718;-2.460;2022-10-31T07:39:01;56.48;82.00
74420;DHT22;62855;50.718;-2.460;2022-10-31T07:42:01;56.48;82.00
74420;DHT22;62855;50.718;-2.460;2022-10-31T07:45:01;56.66;82.00
74420;DHT22;62855;50.718;-2.460;2022-10-31T07:48:01;56.66;82.00
74420;DHT22;62855;50.718;-2.460;2022-10-31T07:51:01;56.66;82.00
74420;DHT22;62855;50.718;-2.460;2022-10-31T07:54:01;56.84;82.00
74420;DHT22;62855;50.718;-2.460;2022-10-31T07:57:01;56.84;81.00
74420;DHT22;62855;50.718;-2.460;2022-10-31T08:00:02;56.84;81.00
74420;DHT22;62855;50.718;-2.460;2022-10-31T08:03:03;57.02;81.00
74420;DHT22;62855;50.718;-2.460;2022-10-31T08:06:00;57.20;80.00
74420;DHT22;62855;50.718;-2.460;2022-10-31T08:09:01;57.20;80.00
74420;DHT22;62855;50.718;-2.460;2022-10-31T08:12:01;57.38;80.00
74420;DHT22;62855;50.718;-2.460;2022-10-31T08:15:01;57.56;80.00
74420;DHT22;62855;50.718;-2.460;2022-10-31T08:18:01;57.56;80.00
74420;DHT22;62855;50.718;-2.460;2022-10-31T08:21:01;57.74;80.00
74420;DHT22;62855;50.718;-2.460;2022-10-31T08:24:01;57.74;80.00
74420;DHT22;62855;50.718;-2.460;2022-10-31T08:27:01;57.74;80.00
74420;DHT22;62855;50.718;-2.460;2022-10-31T08:30:01;57.74;79.00
74420;DHT22;62855;50.718;-2.460;2022-10-31T08:33:04;57.74;79.00
74420;DHT22;62855;50.718;-2.460;2022-10-31T08:36:01;57.92;79.00
74420;DHT22;62855;50.718;-2.460;2022-10-31T08:39:01;58.10;79.00
74420;DHT22;62855;50.718;-2.460;2022-10-31T08:42:01;58.28;79.00
74420;DHT22;62855;50.718;-2.460;2022-10-31T08:45:01;58.46;79.00
74420;DHT22;62855;50.718;-2.460;2022-10-31T08:48:03;58.64;79.00
74420;DHT22;62855;50.718;-2.460;2022-10-31T08:51:01;58.82;78.00
74420;DHT22;62855;50.718;-2.460;2022-10-31T08:54:01;58.82;77.00
74420;DHT22;62855;50.718;-2.460;2022-10-31T08:57:01;59.00;77.00
74420;DHT22;62855;50.718;-2.460;2022-10-31T09:00:02;59.00;76.00
74420;DHT22;62855;50.718;-2.460;2022-10-31T09:03:02;58.82;75.00
74420;DHT22;62855;50.718;-2.460;2022-10-31T09:06:02;58.64;74.00
74420;DHT22;62855;50.718;-2.460;2022-10-31T09:09:01;58.82;75.00
74420;DHT22;62855;50.718;-2.460;2022-10-31T09:12:01;59.00;76.00
74420;DHT22;62855;50.718;-2.460;2022-10-31T09:15:00;59.18;76.00
74420;DHT22;62855;50.718;-2.460;2022-10-31T09:18:00;59.36;76.00
74420;DHT22;62855;50.718;-2.460;2022-10-31T09:21:01;59.36;76.00
74420;DHT22;62855;50.718;-2.460;2022-10-31T09:24:01;59.54;76.00
74420;DHT22;62855;50.718;-2.460;2022-10-31T09:27:01;59.54;76.00
74420;DHT22;62855;50.718;-2.460;2022-10-31T09:30:03;59.54;75.00
74420;DHT22;62855;50.718;-2.460;2022-10-31T09:33:03;59.18;75.00
74420;DHT22;62855;50.718;-2.460;2022-10-31T09:36:01;58.82;74.00
74420;DHT22;62855;50.718;-2.460;2022-10-31T09:39:01;58.64;74.00
74420;DHT22;62855;50.718;-2.460;2022-10-31T09:42:07;58.64;74.00
74420;DHT22;62855;50.718;-2.460;2022-10-31T09:45:06;58.64;75.00
74420;DHT22;62855;50.718;-2.460;2022-10-31T09:48:11;59.00;76.00
74420;DHT22;62855;50.718;-2.460;2022-10-31T09:51:04;59.36;76.00
74420;DHT22;62855;50.718;-2.460;2022-10-31T09:54:04;59.72;75.00
74420;DHT22;62855;50.718;-2.460;2022-10-31T09:57:01;59.90;74.00
74420;DHT22;62855;50.718;-2.460;2022-10-31T10:00:04;60.08;74.00
74420;DHT22;62855;50.718;-2.460;2022-10-31T10:03:07;60.08;73.00
74420;DHT22;62855;50.718;-2.460;2022-10-31T10:06:06;60.26;73.00
74420;DHT22;62855;50.718;-2.460;2022-10-31T10:09:01;60.26;72.00
74420;DHT22;62855;50.718;-2.460;2022-10-31T10:12:08;60.08;72.00
74420;DHT22;62855;50.718;-2.460;2022-10-31T10:15:17;59.90;72.00
74420;DHT22;62855;50.718;-2.460;2022-10-31T10:18:07;59.90;72.00
74420;DHT22;62855;50.718;-2.460;2022-10-31T10:21:11;60.08;72.00
74420;DHT22;62855;50.718;-2.460;2022-10-31T10:24:11;60.44;72.00
74420;DHT22;62855;50.718;-2.460;2022-10-31T10:27:08;60.62;72.00
74420;DHT22;62855;50.718;-2.460;2022-10-31T10:30:07;60.62;72.00
74420;DHT22;62855;50.718;-2.460;2022-10-31T10:33:07;60.44;72.00
74420;DHT22;62855;50.718;-2.460;2022-10-31T10:36:04;60.26;72.00
74420;DHT22;62855;50.718;-2.460;2022-10-31T10:39:04;60.26;72.00
74420;DHT22;62855;50.718;-2.460;2022-10-31T10:42:09;60.08;72.00
74420;DHT22;62855;50.718;-2.460;2022-10-31T10:45:14;59.72;72.00
74420;DHT22;62855;50.718;-2.460;2022-10-31T10:48:06;59.72;72.00
74420;DHT22;62855;50.718;-2.460;2022-10-31T10:51:01;59.72;73.00
74420;DHT22;62855;50.718;-2.460;2022-10-31T10:54:10;59.72;73.00
74420;DHT22;62855;50.718;-2.460;2022-10-31T10:57:08;59.90;73.00
74420;DHT22;62855;50.718;-2.460;2022-10-31T11:00:11;59.72;73.00
74420;DHT22;62855;50.718;-2.460;2022-10-31T11:03:00;59.72;73.00
74420;DHT22;62855;50.718;-2.460;2022-10-31T11:06:00;59.72;72.00
74420;DHT22;62855;50.718;-2.460;2022-10-31T11:09:08;59.90;72.00
74420;DHT22;62855;50.718;-2.460;2022-10-31T11:12:07;60.08;72.00
74420;DHT22;62855;50.718;-2.460;2022-10-31T11:15:07;60.26;72.00
74420;DHT22;62855;50.718;-2.460;2022-10-31T11:18:01;60.62;72.00
74420;DHT22;62855;50.718;-2.460;2022-10-31T11:21:02;60.44;71.00
74420;DHT22;62855;50.718;-2.460;2022-10-31T11:24:02;60.62;71.00
74420;DHT22;62855;50.718;-2.460;2022-10-31T11:27:12;60.62;71.00
74420;DHT22;62855;50.718;-2.460;2022-10-31T11:30:06;60.80;71.00
74420;DHT22;62855;50.718;-2.460;2022-10-31T11:33:01;60.62;71.00
74420;DHT22;62855;50.718;-2.460;2022-10-31T11:36:02;60.62;71.00
74420;DHT22;62855;50.718;-2.460;2022-10-31T11:39:03;60.62;70.00
74420;DHT22;62855;50.718;-2.460;2022-10-31T11:42:01;60.44;70.00
74420;DHT22;62855;50.718;-2.460;2022-10-31T11:45:05;60.44;71.00
74420;DHT22;62855;50.718;-2.460;2022-10-31T11:48:02;60.44;71.00
74420;DHT22;62855;50.718;-2.460;2022-10-31T11:51:02;60.44;71.00
74420;DHT22;62855;50.718;-2.460;2022-10-31T11:54:02;60.44;71.00
74420;DHT22;62855;50.718;-2.460;2022-10-31T11:57:01;60.44;71.00
74420;DHT22;62855;50.718;-2.460;2022-10-31T12:00:04;60.44;71.00
74420;DHT22;62855;50.718;-2.460;2022-10-31T12:03:10;60.44;71.00
74420;DHT22;62855;50.718;-2.460;2022-10-31T12:06:06;60.26;71.00
74420;DHT22;62855;50.718;-2.460;2022-10-31T12:09:02;60.44;71.00
74420;DHT22;62855;50.718;-2.460;2022-10-31T12:12:13;60.62;72.00
74420;DHT22;62855;50.718;-2.460;2022-10-31T12:15:11;60.80;71.00
74420;DHT22;62855;50.718;-2.460;2022-10-31T12:18:17;61.16;72.00
74420;DHT22;62855;50.718;-2.460;2022-10-31T12:21:12;61.16;71.00
74420;DHT22;62855;50.718;-2.460;2022-10-31T12:24:11;60.98;71.00
74420;DHT22;62855;50.718;-2.460;2022-10-31T12:27:10;60.80;71.00
74420;DHT22;62855;50.718;-2.460;2022-10-31T12:30:11;60.62;71.00
74420;DHT22;62855;50.718;-2.460;2022-10-31T12:33:15;60.62;71.00
74420;DHT22;62855;50.718;-2.460;2022-10-31T12:36:14;60.80;71.00
74420;DHT22;62855;50.718;-2.460;2022-10-31T12:39:11;60.98;72.00
74420;DHT22;62855;50.718;-2.460;2022-10-31T12:42:07;61.16;72.00
74420;DHT22;62855;50.718;-2.460;2022-10-31T12:45:18;60.98;71.00
74420;DHT22;62855;50.718;-2.460;2022-10-31T12:48:14;60.98;71.00
74420;DHT22;62855;50.718;-2.460;2022-10-31T12:51:08;60.98;71.00
74420;DHT22;62855;50.718;-2.460;2022-10-31T12:54:15;60.98;71.00
74420;DHT22;62855;50.718;-2.460;2022-10-31T12:57:07;60.80;70.00
74420;DHT22;62855;50.718;-2.460;2022-10-31T13:00:04;60.44;71.00
74420;DHT22;62855;50.718;-2.460;2022-10-31T13:03:16;60.44;71.00
74420;DHT22;62855;50.718;-2.460;2022-10-31T13:06:05;60.44;71.00
74420;DHT22;62855;50.718;-2.460;2022-10-31T13:09:05;60.44;71.00
74420;DHT22;62855;50.718;-2.460;2022-10-31T13:12:05;60.26;71.00
74420;DHT22;62855;50.718;-2.460;2022-10-31T13:15:05;60.26;71.00
74420;DHT22;62855;50.718;-2.460;2022-10-31T13:18:05;60.08;72.00
74420;DHT22;62855;50.718;-2.460;2022-10-31T13:21:05;59.90;72.00
74420;DHT22;62855;50.718;-2.460;2022-10-31T13:24:04;59.54;72.00
74420;DHT22;62855;50.718;-2.460;2022-10-31T13:27:03;59.54;73.00
74420;DHT22;62855;50.718;-2.460;2022-10-31T13:30:03;59.54;74.00
74420;DHT22;62855;50.718;-2.460;2022-10-31T13:33:05;59.36;75.00
74420;DHT22;62855;50.718;-2.460;2022-10-31T13:36:14;59.36;76.00
74420;DHT22;62855;50.718;-2.460;2022-10-31T13:39:20;59.18;76.00
74420;DHT22;62855;50.718;-2.460;2022-10-31T13:42:05;59.00;77.00
74420;DHT22;62855;50.718;-2.460;2022-10-31T13:45:13;58.82;79.00
74420;DHT22;62855;50.718;-2.460;2022-10-31T13:48:17;58.46;80.00
74420;DHT22;62855;50.718;-2.460;2022-10-31T13:54:06;58.10;80.00
74420;DHT22;62855;50.718;-2.460;2022-10-31T13:57:00;58.10;81.00
74420;DHT22;62855;50.718;-2.460;2022-10-31T14:00:04;57.92;81.00
74420;DHT22;62855;50.718;-2.460;2022-10-31T14:03:01;57.92;81.00
74420;DHT22;62855;50.718;-2.460;2022-10-31T14:06:02;57.74;82.00
74420;DHT22;62855;50.718;-2.460;2022-10-31T14:09:02;57.74;82.00
74420;DHT22;62855;50.718;-2.460;2022-10-31T14:12:04;57.56;82.00
74420;DHT22;62855;50.718;-2.460;2022-10-31T14:15:05;57.38;83.00
74420;DHT22;62855;50.718;-2.460;2022-10-31T14:18:04;57.38;83.00
74420;DHT22;62855;50.718;-2.460;2022-10-31T14:21:01;57.20;83.00
74420;DHT22;62855;50.718;-2.460;2022-10-31T14:24:01;57.20;83.00
74420;DHT22;62855;50.718;-2.460;2022-10-31T14:27:03;57.02;83.00
74420;DHT22;62855;50.718;-2.460;2022-10-31T14:30:16;57.02;84.00
74420;DHT22;62855;50.718;-2.460;2022-10-31T14:33:02;57.02;84.00
74420;DHT22;62855;50.718;-2.460;2022-10-31T14:36:06;57.02;84.00
74420;DHT22;62855;50.718;-2.460;2022-10-31T14:39:09;57.02;84.00
74420;DHT22;62855;50.718;-2.460;2022-10-31T14:42:13;57.02;85.00
74420;DHT22;62855;50.718;-2.460;2022-10-31T14:45:13;57.02;85.00
74420;DHT22;62855;50.718;-2.460;2022-10-31T14:48:11;56.84;85.00
74420;DHT22;62855;50.718;-2.460;2022-10-31T14:51:03;56.84;85.00
74420;DHT22;62855;50.718;-2.460;2022-10-31T14:54:02;56.84;85.00
74420;DHT22;62855;50.718;-2.460;2022-10-31T14:57:05;56.84;86.00
74420;DHT22;62855;50.718;-2.460;2022-10-31T15:00:04;56.84;86.00
74420;DHT22;62855;50.718;-2.460;2022-10-31T15:03:07;56.84;86.00
74420;DHT22;62855;50.718;-2.460;2022-10-31T15:06:04;56.84;86.00
74420;DHT22;62855;50.718;-2.460;2022-10-31T15:09:00;56.84;86.00
74420;DHT22;62855;50.718;-2.460;2022-10-31T15:12:21;56.84;87.00
74420;DHT22;62855;50.718;-2.460;2022-10-31T15:15:11;56.84;87.00
74420;DHT22;62855;50.718;-2.460;2022-10-31T15:18:04;56.84;87.00
74420;DHT22;62855;50.718;-2.460;2022-10-31T15:21:01;56.84;87.00
74420;DHT22;62855;50.718;-2.460;2022-10-31T15:24:02;56.84;87.00
74420;DHT22;62855;50.718;-2.460;2022-10-31T15:27:01;56.84;88.00
74420;DHT22;62855;50.718;-2.460;2022-10-31T15:30:01;57.02;88.00
74420;DHT22;62855;50.718;-2.460;2022-10-31T15:33:01;57.02;88.00
74420;DHT22;62855;50.718;-2.460;2022-10-31T15:36:02;57.02;88.00
74420;DHT22;62855;50.718;-2.460;2022-10-31T15:39:01;57.02;88.00
74420;DHT22;62855;50.718;-2.460;2022-10-31T15:42:00;57.02;88.00
74420;DHT22;62855;50.718;-2.460;2022-10-31T15:45:05;57.02;89.00
74420;DHT22;62855;50.718;-2.460;2022-10-31T15:48:03;57.02;89.00
74420;DHT22;62855;50.718;-2.460;2022-10-31T15:51:01;57.02;89.00
74420;DHT22;62855;50.718;-2.460;2022-10-31T15:54:01;57.02;89.00
74420;DHT22;62855;50.718;-2.460;2022-10-31T15:57:01;57.02;89.00
74420;DHT22;62855;50.718;-2.460;2022-10-31T16:00:02;57.02;89.00
74420;DHT22;62855;50.718;-2.460;2022-10-31T16:03:03;57.02;89.00
74420;DHT22;62855;50.718;-2.460;2022-10-31T16:06:03;57.02;89.00
74420;DHT22;62855;50.718;-2.460;2022-10-31T16:09:01;57.02;89.00
74420;DHT22;62855;50.718;-2.460;2022-10-31T16:12:01;57.02;89.00
74420;DHT22;62855;50.718;-2.460;2022-10-31T16:15:02;57.02;90.00
74420;DHT22;62855;50.718;-2.460;2022-10-31T16:18:01;57.02;90.00
74420;DHT22;62855;50.718;-2.460;2022-10-31T16:21:01;57.20;90.00
74420;DHT22;62855;50.718;-2.460;2022-10-31T16:24:04;57.20;90.00
74420;DHT22;62855;50.718;-2.460;2022-10-31T16:27:03;57.20;90.00
74420;DHT22;62855;50.718;-2.460;2022-10-31T16:30:30;57.20;90.00
74420;DHT22;62855;50.718;-2.460;2022-10-31T16:33:01;57.20;90.00
74420;DHT22;62855;50.718;-2.460;2022-10-31T16:36:29;57.20;90.00
74420;DHT22;62855;50.718;-2.460;2022-10-31T16:39:01;57.38;90.00
74420;DHT22;62855;50.718;-2.460;2022-10-31T16:42:00;57.38;90.00
74420;DHT22;62855;50.718;-2.460;2022-10-31T16:45:01;57.38;90.00
74420;DHT22;62855;50.718;-2.460;2022-10-31T16:48:04;57.56;90.00
74420;DHT22;62855;50.718;-2.460;2022-10-31T16:51:01;57.56;90.00
74420;DHT22;62855;50.718;-2.460;2022-10-31T16:54:01;57.74;90.00
74420;DHT22;62855;50.718;-2.460;2022-10-31T16:57:02;57.74;91.00
74420;DHT22;62855;50.718;-2.460;2022-10-31T17:00:01;57.74;91.00
74420;DHT22;62855;50.718;-2.460;2022-10-31T17:03:01;57.74;91.00
74420;DHT22;62855;50.718;-2.460;2022-10-31T17:06:01;57.74;91.00
74420;DHT22;62855;50.718;-2.460;2022-10-31T17:09:01;57.74;91.00
74420;DHT22;62855;50.718;-2.460;2022-10-31T17:12:01;57.74;91.00
74420;DHT22;62855;50.718;-2.460;2022-10-31T17:15:01;57.74;91.00
74420;DHT22;62855;50.718;-2.460;2022-10-31T17:18:01;57.74;91.00
74420;DHT22;62855;50.718;-2.460;2022-10-31T17:21:02;57.74;91.00
74420;DHT22;62855;50.718;-2.460;2022-10-31T17:24:00;57.92;91.00
74420;DHT22;62855;50.718;-2.460;2022-10-31T17:27:01;57.92;91.00
74420;DHT22;62855;50.718;-2.460;2022-10-31T17:30:01;57.92;91.00
74420;DHT22;62855;50.718;-2.460;2022-10-31T17:33:01;57.92;91.00
74420;DHT22;62855;50.718;-2.460;2022-10-31T17:36:01;57.92;91.00
74420;DHT22;62855;50.718;-2.460;2022-10-31T17:39:01;57.92;91.00
74420;DHT22;62855;50.718;-2.460;2022-10-31T17:42:01;57.92;91.00
74420;DHT22;62855;50.718;-2.460;2022-10-31T17:45:02;57.92;91.00
74420;DHT22;62855;50.718;-2.460;2022-10-31T17:48:01;57.92;91.00
74420;DHT22;62855;50.718;-2.460;2022-10-31T17:51:02;57.92;91.00
74420;DHT22;62855;50.718;-2.460;2022-10-31T18:01:08;57.92;91.00
74420;DHT22;62855;50.718;-2.460;2022-10-31T18:06:01;57.92;91.00
74420;DHT22;62855;50.718;-2.460;2022-10-31T18:09:02;57.92;91.00
74420;DHT22;62855;50.718;-2.460;2022-10-31T18:12:01;57.92;91.00
74420;DHT22;62855;50.718;-2.460;2022-10-31T18:15:01;57.92;91.00
74420;DHT22;62855;50.718;-2.460;2022-10-31T18:18:01;57.92;91.00
74420;DHT22;62855;50.718;-2.460;2022-10-31T18:21:00;57.92;91.00
74420;DHT22;62855;50.718;-2.460;2022-10-31T18:24:01;57.92;91.00
74420;DHT22;62855;50.718;-2.460;2022-10-31T18:27:01;57.92;91.00
74420;DHT22;62855;50.718;-2.460;2022-10-31T18:30:01;57.74;91.00
74420;DHT22;62855;50.718;-2.460;2022-10-31T18:33:01;57.74;91.00
74420;DHT22;62855;50.718;-2.460;2022-10-31T18:36:03;57.74;91.00
74420;DHT22;62855;50.718;-2.460;2022-10-31T18:39:01;57.74;91.00
74420;DHT22;62855;50.718;-2.460;2022-10-31T18:42:01;57.74;91.00
74420;DHT22;62855;50.718;-2.460;2022-10-31T18:45:01;57.74;91.00
74420;DHT22;62855;50.718;-2.460;2022-10-31T18:48:01;57.74;91.00
74420;DHT22;62855;50.718;-2.460;2022-10-31T18:51:01;57.74;91.00